createdAt,value
2018-03-18T00:01:05.002Z,0.00
2018-03-18T00:02:36.818Z,0.00
2018-03-18T00:04:08.634Z,0.00
2018-03-18T00:05:40.452Z,0.00
2018-03-18T00:07:12.269Z,0.00
2018-03-18T00:08:44.085Z,0.00
2018-03-18T00:10:15.904Z,0.00
2018-03-18T00:11:47.721Z,0.00
2018-03-18T00:13:19.644Z,0.00
2018-03-18T00:14:51.355Z,0.00
2018-03-18T00:16:23.172Z,0.00
2018-03-18T00:17:54.989Z,0.00
2018-03-18T00:19:26.805Z,0.00
2018-03-18T00:20:58.622Z,0.00
2018-03-18T00:22:30.440Z,0.00
2018-03-18T00:24:02.256Z,0.00
2018-03-18T00:25:34.174Z,0.00
2018-03-18T00:27:05.890Z,0.00
2018-03-18T00:28:37.707Z,0.00
2018-03-18T00:30:09.525Z,0.00
2018-03-18T00:31:41.441Z,0.00
2018-03-18T00:33:13.160Z,0.00
2018-03-18T00:34:44.975Z,0.00
2018-03-18T00:36:16.792Z,0.00
2018-03-18T00:37:48.612Z,0.00
2018-03-18T00:39:20.426Z,0.00
2018-03-18T00:40:52.243Z,0.00
2018-03-18T00:42:24.060Z,0.00
2018-03-18T00:43:55.877Z,0.00
2018-03-18T00:45:27.703Z,0.00
2018-03-18T00:46:59.511Z,0.00
2018-03-18T00:48:31.329Z,0.00
2018-03-18T00:50:03.497Z,0.00
2018-03-18T00:51:34.962Z,0.00
2018-03-18T00:53:06.778Z,0.00
2018-03-18T00:54:38.594Z,0.00
2018-03-18T00:56:10.561Z,0.00
2018-03-18T00:57:42.234Z,0.00
2018-03-18T00:59:14.047Z,0.00
2018-03-18T01:00:45.862Z,0.00
2018-03-18T01:02:17.777Z,0.00
2018-03-18T01:03:49.494Z,0.00
2018-03-18T01:05:21.312Z,0.00
2018-03-18T01:06:53.130Z,0.00
2018-03-18T01:08:25.044Z,0.00
2018-03-18T01:09:56.759Z,0.00
2018-03-18T01:11:28.574Z,0.00
2018-03-18T01:13:00.391Z,0.00
2018-03-18T01:14:32.358Z,0.00
2018-03-18T01:16:04.023Z,0.00
2018-03-18T01:17:35.839Z,0.00
2018-03-18T01:19:07.656Z,0.00
2018-03-18T01:20:39.722Z,0.00
2018-03-18T01:22:11.293Z,0.00
2018-03-18T01:23:43.104Z,0.00
2018-03-18T01:25:14.925Z,0.00
2018-03-18T01:26:46.836Z,0.00
2018-03-18T01:28:18.551Z,0.00
2018-03-18T01:29:50.367Z,0.00
2018-03-18T01:31:22.182Z,0.00
2018-03-18T01:32:53.999Z,0.00
2018-03-18T01:34:25.813Z,0.00
2018-03-18T01:35:57.630Z,0.00
2018-03-18T01:37:29.447Z,0.00
2018-03-18T01:39:01.264Z,0.00
2018-03-18T01:40:33.077Z,0.00
2018-03-18T01:42:04.897Z,0.00
2018-03-18T01:43:36.710Z,0.00
2018-03-18T01:45:08.624Z,0.00
2018-03-18T01:46:40.340Z,0.00
2018-03-18T01:48:12.155Z,0.00
2018-03-18T01:49:43.972Z,0.00
2018-03-18T01:51:16.094Z,0.00
2018-03-18T01:52:47.603Z,0.00
2018-03-18T01:54:19.420Z,0.00
2018-03-18T01:55:51.236Z,0.00
2018-03-18T01:57:23.050Z,0.00
2018-03-18T01:58:54.866Z,0.00
2018-03-18T02:00:26.687Z,0.00
2018-03-18T02:01:58.500Z,0.00
2018-03-18T02:03:30.413Z,0.00
2018-03-18T02:05:02.129Z,0.00
2018-03-18T02:06:33.945Z,0.00
2018-03-18T02:08:05.759Z,0.00
2018-03-18T02:09:37.725Z,0.00
2018-03-18T02:11:09.390Z,0.00
2018-03-18T02:12:41.206Z,0.00
2018-03-18T02:14:13.023Z,0.00
2018-03-18T02:15:44.838Z,0.00
2018-03-18T02:17:16.654Z,0.00
2018-03-18T02:18:48.470Z,0.00
2018-03-18T02:20:20.285Z,0.00
2018-03-18T02:21:52.451Z,0.00
2018-03-18T02:23:23.922Z,0.00
2018-03-18T02:24:55.733Z,0.00
2018-03-18T02:26:27.548Z,0.00
2018-03-18T02:27:59.514Z,0.00
2018-03-18T02:29:31.190Z,0.00
2018-03-18T02:31:02.996Z,0.00
2018-03-18T02:32:34.811Z,0.00
2018-03-18T02:34:06.627Z,0.00
2018-03-18T02:35:38.442Z,0.00
2018-03-18T02:37:10.259Z,0.00
2018-03-18T02:38:42.074Z,0.00
2018-03-18T02:40:13.992Z,0.00
2018-03-18T02:41:45.711Z,0.00
2018-03-18T02:43:17.524Z,0.00
2018-03-18T02:44:49.339Z,0.00
2018-03-18T02:46:21.154Z,0.00
2018-03-18T02:47:52.977Z,0.00
2018-03-18T02:49:24.789Z,0.00
2018-03-18T02:50:56.602Z,0.00
2018-03-18T02:52:28.669Z,0.00
2018-03-18T02:54:00.235Z,0.00
2018-03-18T02:55:32.049Z,0.00
2018-03-18T02:57:03.867Z,0.00
2018-03-18T02:58:35.881Z,0.00
2018-03-18T03:00:07.499Z,0.00
2018-03-18T03:01:39.320Z,0.00
2018-03-18T03:03:11.131Z,0.00
2018-03-18T03:04:42.947Z,0.00
2018-03-18T03:06:14.760Z,0.00
2018-03-18T03:07:46.576Z,0.00
2018-03-18T03:09:18.391Z,0.00
2018-03-18T03:10:50.357Z,0.00
2018-03-18T03:12:22.022Z,0.00
2018-03-18T03:13:53.839Z,0.00
2018-03-18T03:15:25.664Z,0.00
2018-03-18T03:16:57.568Z,0.00
2018-03-18T03:18:29.285Z,0.00
2018-03-18T03:20:01.099Z,0.00
2018-03-18T03:21:32.915Z,0.00
2018-03-18T03:23:04.980Z,0.00
2018-03-18T03:24:36.546Z,0.00
2018-03-18T03:26:08.361Z,0.00
2018-03-18T03:27:40.178Z,0.00
2018-03-18T03:29:12.141Z,0.00
2018-03-18T03:30:43.812Z,0.00
2018-03-18T03:32:15.625Z,0.00
2018-03-18T03:33:47.438Z,0.00
2018-03-18T03:35:19.454Z,0.00
2018-03-18T03:36:51.070Z,0.00
2018-03-18T03:38:22.885Z,0.00
2018-03-18T03:39:54.700Z,0.00
2018-03-18T03:41:26.517Z,0.00
2018-03-18T03:42:58.331Z,0.00
2018-03-18T03:44:30.147Z,0.00
2018-03-18T03:46:01.965Z,0.00
2018-03-18T03:47:33.778Z,0.00
2018-03-18T03:49:05.594Z,0.00
2018-03-18T03:50:37.408Z,0.00
2018-03-18T03:52:09.226Z,0.00
2018-03-18T03:53:41.390Z,0.00
2018-03-18T03:55:12.855Z,0.00
2018-03-18T03:56:44.676Z,0.00
2018-03-18T03:58:16.487Z,0.00
2018-03-18T03:59:48.402Z,0.00
2018-03-18T04:01:20.118Z,0.00
2018-03-18T04:02:51.932Z,0.00
2018-03-18T04:04:23.749Z,0.00
2018-03-18T04:05:55.564Z,0.00
2018-03-18T04:07:27.381Z,0.00
2018-03-18T04:08:59.195Z,0.00
2018-03-18T04:10:31.010Z,0.00
2018-03-18T04:12:03.177Z,0.00
2018-03-18T04:13:34.642Z,0.00
2018-03-18T04:15:06.458Z,0.00
2018-03-18T04:16:38.272Z,0.00
2018-03-18T04:18:10.090Z,0.00
2018-03-18T04:19:41.908Z,0.00
2018-03-18T04:21:13.720Z,0.00
2018-03-18T04:22:45.535Z,0.00
2018-03-18T04:24:17.602Z,0.00
2018-03-18T04:25:49.170Z,0.00
2018-03-18T04:27:20.982Z,0.00
2018-03-18T04:28:52.798Z,0.00
2018-03-18T04:30:24.864Z,0.00
2018-03-18T04:31:56.429Z,0.00
2018-03-18T04:33:28.245Z,0.00
2018-03-18T04:35:00.062Z,0.00
2018-03-18T04:36:31.875Z,0.00
2018-03-18T04:38:03.691Z,0.00
2018-03-18T04:39:35.507Z,0.00
2018-03-18T04:41:07.322Z,0.00
2018-03-18T04:42:39.137Z,0.00
2018-03-18T04:44:10.952Z,0.00
2018-03-18T04:45:42.772Z,0.00
2018-03-18T04:47:14.593Z,0.00
2018-03-18T04:48:46.499Z,0.00
2018-03-18T04:50:18.215Z,0.00
2018-03-18T04:51:50.030Z,0.00
2018-03-18T04:53:21.845Z,0.00
2018-03-18T04:54:53.662Z,0.00
2018-03-18T04:56:25.476Z,0.00
2018-03-18T04:57:57.295Z,0.00
2018-03-18T04:59:29.108Z,0.00
2018-03-18T05:01:01.022Z,0.00
2018-03-18T05:02:32.738Z,0.00
2018-03-18T05:04:04.552Z,0.00
2018-03-18T05:05:36.369Z,0.00
2018-03-18T05:07:08.284Z,0.00
2018-03-18T05:08:39.998Z,0.00
2018-03-18T05:10:11.815Z,0.00
2018-03-18T05:11:43.629Z,0.00
2018-03-18T05:13:15.598Z,0.00
2018-03-18T05:14:47.259Z,0.00
2018-03-18T05:16:19.080Z,0.00
2018-03-18T05:17:50.889Z,0.00
2018-03-18T05:19:22.705Z,0.00
2018-03-18T05:20:54.522Z,0.00
2018-03-18T05:22:26.338Z,0.00
2018-03-18T05:23:58.149Z,0.00
2018-03-18T05:25:30.315Z,0.00
2018-03-18T05:27:01.779Z,0.00
2018-03-18T05:28:33.594Z,0.00
2018-03-18T05:30:05.410Z,0.00
2018-03-18T05:31:37.225Z,0.00
2018-03-18T05:33:09.039Z,0.00
2018-03-18T05:34:40.854Z,0.00
2018-03-18T05:36:12.669Z,0.00
2018-03-18T05:37:44.483Z,0.00
2018-03-18T05:39:16.299Z,0.00
2018-03-18T05:40:48.114Z,0.00
2018-03-18T05:42:19.929Z,0.00
2018-03-18T05:43:52.596Z,0.00
2018-03-18T05:45:23.559Z,0.00
2018-03-18T05:46:55.373Z,0.00
2018-03-18T05:48:27.189Z,0.00
2018-03-18T05:49:59.003Z,0.00
2018-03-18T05:51:30.819Z,0.00
2018-03-18T05:53:02.633Z,0.00
2018-03-18T05:54:34.449Z,0.00
2018-03-18T05:56:06.516Z,0.00
2018-03-18T05:57:38.077Z,0.00
2018-03-18T05:59:09.893Z,0.00
2018-03-18T06:00:41.708Z,0.00
2018-03-18T06:02:13.745Z,0.00
2018-03-18T06:03:45.337Z,0.00
2018-03-18T06:05:17.152Z,0.00
2018-03-18T06:06:48.970Z,0.00
2018-03-18T06:08:20.781Z,0.00
2018-03-18T06:09:52.596Z,0.00
2018-03-18T06:11:24.470Z,0.00
2018-03-18T06:12:56.225Z,0.00
2018-03-18T06:14:28.040Z,0.00
2018-03-18T06:15:59.855Z,0.00
2018-03-18T06:17:31.670Z,0.00
2018-03-18T06:19:03.485Z,0.00
2018-03-18T06:20:35.398Z,0.00
2018-03-18T06:22:07.112Z,0.00
2018-03-18T06:23:38.929Z,0.00
2018-03-18T06:25:10.742Z,0.00
2018-03-18T06:26:42.807Z,0.00
2018-03-18T06:28:14.373Z,0.00
2018-03-18T06:29:46.187Z,0.00
2018-03-18T06:31:18.001Z,0.00
2018-03-18T06:32:49.916Z,0.00
2018-03-18T06:34:21.631Z,0.00
2018-03-18T06:35:53.445Z,0.00
2018-03-18T06:37:25.267Z,0.00
2018-03-18T06:38:57.176Z,0.00
2018-03-18T06:40:28.891Z,0.00
2018-03-18T06:42:00.707Z,0.00
2018-03-18T06:43:32.520Z,0.00
2018-03-18T06:45:04.335Z,0.00
2018-03-18T06:46:36.150Z,0.00
2018-03-18T06:48:07.965Z,0.00
2018-03-18T06:49:39.779Z,0.00
2018-03-18T06:51:11.594Z,0.00
2018-03-18T06:52:43.408Z,0.00
2018-03-18T06:54:15.223Z,0.00
2018-03-18T06:55:47.037Z,0.00
2018-03-18T06:57:19.203Z,0.00
2018-03-18T06:58:50.666Z,0.00
2018-03-18T07:00:22.483Z,0.00
2018-03-18T07:01:54.296Z,0.00
2018-03-18T07:03:26.110Z,0.00
2018-03-18T07:04:57.924Z,0.00
2018-03-18T07:06:29.738Z,0.00
2018-03-18T07:08:01.555Z,0.00
2018-03-18T07:09:33.369Z,0.00
2018-03-18T07:11:05.184Z,0.00
2018-03-18T07:12:36.998Z,0.00
2018-03-18T07:14:08.813Z,0.00
2018-03-18T07:15:40.726Z,0.00
2018-03-18T07:17:12.441Z,0.00
2018-03-18T07:18:44.256Z,0.00
2018-03-18T07:20:16.070Z,0.00
2018-03-18T07:21:48.037Z,0.00
2018-03-18T07:23:19.700Z,0.00
2018-03-18T07:24:51.522Z,0.00
2018-03-18T07:26:23.330Z,0.00
2018-03-18T07:27:55.393Z,0.00
2018-03-18T07:29:26.958Z,0.00
2018-03-18T07:30:58.772Z,0.00
2018-03-18T07:32:30.587Z,0.00
2018-03-18T07:34:02.602Z,0.00
2018-03-18T07:35:34.217Z,0.00
2018-03-18T07:37:06.033Z,0.00
2018-03-18T07:38:37.898Z,0.00
2018-03-18T07:40:09.661Z,0.00
2018-03-18T07:41:41.475Z,0.00
2018-03-18T07:43:13.296Z,0.00
2018-03-18T07:44:45.113Z,0.00
2018-03-18T07:46:16.918Z,0.00
2018-03-18T07:47:48.733Z,0.00
2018-03-18T07:49:20.547Z,0.00
2018-03-18T07:50:52.363Z,0.00
2018-03-18T07:52:24.277Z,0.00
2018-03-18T07:53:55.994Z,0.00
2018-03-18T07:55:27.817Z,0.00
2018-03-18T07:56:59.622Z,0.00
2018-03-18T07:58:31.689Z,0.00
2018-03-18T08:00:03.251Z,0.00
2018-03-18T08:01:35.064Z,0.00
2018-03-18T08:03:06.878Z,0.00
2018-03-18T08:04:38.793Z,0.00
2018-03-18T08:06:10.507Z,0.00
2018-03-18T08:07:42.326Z,0.00
2018-03-18T08:09:14.136Z,0.00
2018-03-18T08:10:46.050Z,0.00
2018-03-18T08:12:17.768Z,0.00
2018-03-18T08:13:49.585Z,0.00
2018-03-18T08:15:21.393Z,0.00
2018-03-18T08:16:53.214Z,0.00
2018-03-18T08:18:25.022Z,0.00
2018-03-18T08:19:56.837Z,0.00
2018-03-18T08:21:28.650Z,0.00
2018-03-18T08:23:00.619Z,0.00
2018-03-18T08:24:32.279Z,0.00
2018-03-18T08:26:04.094Z,0.00
2018-03-18T08:27:35.907Z,0.00
2018-03-18T08:29:07.822Z,0.00
2018-03-18T08:30:39.535Z,0.00
2018-03-18T08:32:11.351Z,0.00
2018-03-18T08:33:43.164Z,0.00
2018-03-18T08:35:15.078Z,0.00
2018-03-18T08:36:46.793Z,0.00
2018-03-18T08:38:18.607Z,0.00
2018-03-18T08:39:50.424Z,0.00
2018-03-18T08:41:22.263Z,0.00
2018-03-18T08:42:54.051Z,0.00
2018-03-18T08:44:25.863Z,4.00
2018-03-18T08:45:57.677Z,0.00
2018-03-18T08:47:29.592Z,0.00
2018-03-18T08:49:01.306Z,4.00
2018-03-18T08:50:33.126Z,8.00
2018-03-18T08:52:04.935Z,12.00
2018-03-18T08:53:36.753Z,20.00
2018-03-18T08:55:08.565Z,28.00
2018-03-18T08:56:40.376Z,40.00
2018-03-18T08:58:12.199Z,56.00
2018-03-18T08:59:44.256Z,84.00
2018-03-18T09:01:15.877Z,124.00
2018-03-18T09:02:47.634Z,176.00
2018-03-18T09:04:19.449Z,240.00
2018-03-18T09:05:51.466Z,308.00
2018-03-18T09:07:23.078Z,388.00
2018-03-18T09:08:54.892Z,480.00
2018-03-18T09:10:26.706Z,588.00
2018-03-18T09:11:58.521Z,692.00
2018-03-18T09:13:30.336Z,800.00
2018-03-18T09:15:02.151Z,904.00
2018-03-18T09:16:33.965Z,1032.00
2018-03-18T09:18:05.780Z,1164.00
2018-03-18T09:19:37.594Z,1300.00
2018-03-18T09:21:09.409Z,1480.00
2018-03-18T09:22:41.223Z,1680.00
2018-03-18T09:24:13.138Z,1896.00
2018-03-18T09:25:44.855Z,2172.00
2018-03-18T09:27:16.666Z,2468.00
2018-03-18T09:28:48.483Z,2916.00
2018-03-18T09:30:20.571Z,3304.00
2018-03-18T09:33:23.925Z,3792.00
2018-03-18T09:34:55.739Z,4124.00
2018-03-18T09:36:27.654Z,4232.00
2018-03-18T09:37:59.368Z,3916.00
2018-03-18T09:39:31.186Z,4432.00
2018-03-18T09:41:03.001Z,5104.00
2018-03-18T09:42:34.916Z,5656.00
2018-03-18T09:44:06.633Z,5388.00
2018-03-18T09:45:38.448Z,5964.00
2018-03-18T09:47:10.263Z,6108.00
2018-03-18T09:48:42.231Z,6360.00
2018-03-18T09:50:13.897Z,6768.00
2018-03-18T09:51:45.713Z,5972.00
2018-03-18T09:53:17.531Z,5824.00
2018-03-18T09:54:49.347Z,6928.00
2018-03-18T09:56:21.165Z,7444.00
2018-03-18T09:57:52.981Z,8288.00
2018-03-18T09:59:24.798Z,8576.00
2018-03-18T10:00:56.965Z,7144.00
2018-03-18T10:02:28.475Z,8980.00
2018-03-18T10:04:00.250Z,8168.00
2018-03-18T10:05:32.066Z,7680.00
2018-03-18T10:07:04.188Z,10740.00
2018-03-18T10:08:35.701Z,8968.00
2018-03-18T10:10:07.519Z,9696.00
2018-03-18T10:11:39.341Z,10060.00
2018-03-18T10:13:11.152Z,10696.00
2018-03-18T10:14:42.974Z,9992.00
2018-03-18T10:16:14.792Z,9880.00
2018-03-18T10:17:46.606Z,12492.00
2018-03-18T10:19:18.522Z,13736.00
2018-03-18T10:20:50.238Z,14496.00
2018-03-18T10:22:22.258Z,14400.00
2018-03-18T10:23:54.176Z,14708.00
2018-03-18T10:25:25.691Z,13684.00
2018-03-18T10:26:57.507Z,12328.00
2018-03-18T10:28:29.325Z,12408.00
2018-03-18T10:30:01.144Z,17632.00
2018-03-18T10:31:33.212Z,15280.00
2018-03-18T10:33:04.779Z,14016.00
2018-03-18T10:34:36.597Z,13872.00
2018-03-18T10:36:08.414Z,14100.00
2018-03-18T10:37:40.335Z,14164.00
2018-03-18T10:39:12.050Z,14780.00
2018-03-18T10:40:43.873Z,15368.00
2018-03-18T10:42:15.687Z,16348.00
2018-03-18T10:43:47.503Z,14076.00
2018-03-18T10:45:19.321Z,15852.00
2018-03-18T10:46:51.139Z,15440.00
2018-03-18T10:48:22.956Z,13256.00
2018-03-18T10:49:54.926Z,15084.00
2018-03-18T10:51:26.592Z,14880.00
2018-03-18T10:52:58.410Z,15116.00
2018-03-18T10:54:30.230Z,18592.00
2018-03-18T10:56:02.148Z,18912.00
2018-03-18T10:57:33.865Z,18784.00
2018-03-18T10:59:05.686Z,23904.00
2018-03-18T11:00:37.499Z,27776.00
2018-03-18T11:02:09.324Z,21344.00
2018-03-18T11:03:41.136Z,25600.00
2018-03-18T11:05:12.964Z,23584.00
2018-03-18T11:06:44.774Z,19808.00
2018-03-18T11:08:16.898Z,18688.00
2018-03-18T11:09:48.412Z,19680.00
2018-03-18T11:11:20.233Z,19616.00
2018-03-18T11:12:52.253Z,21056.00
2018-03-18T11:14:23.970Z,19872.00
2018-03-18T11:15:55.689Z,17036.00
2018-03-18T11:17:27.509Z,20160.00
2018-03-18T11:18:59.338Z,22976.00
2018-03-18T11:20:31.146Z,28096.00
2018-03-18T11:22:02.966Z,30624.00
2018-03-18T11:23:34.784Z,35616.00
2018-03-18T11:25:06.605Z,21920.00
2018-03-18T11:26:38.425Z,23712.00
2018-03-18T11:28:10.244Z,22112.00
2018-03-18T11:29:42.369Z,21248.00
2018-03-18T11:31:13.883Z,20576.00
2018-03-18T11:32:46.054Z,22272.00
2018-03-18T11:34:17.524Z,23584.00
2018-03-18T11:35:49.648Z,23232.00
2018-03-18T11:37:21.166Z,23520.00
2018-03-18T11:38:53.088Z,22848.00
2018-03-18T11:40:24.804Z,25376.00
2018-03-18T11:41:56.625Z,25472.00
2018-03-18T11:43:28.450Z,21888.00
2018-03-18T11:46:32.290Z,23552.00
2018-03-18T11:48:03.903Z,23616.00
2018-03-18T11:49:35.727Z,25664.00
2018-03-18T11:51:07.567Z,25856.00
2018-03-18T11:52:39.615Z,25152.00
2018-03-18T11:54:11.183Z,25632.00
2018-03-18T11:55:43.004Z,25504.00
2018-03-18T11:57:14.824Z,23136.00
2018-03-18T11:58:46.655Z,24480.00
2018-03-18T12:00:18.464Z,34528.00
2018-03-18T12:01:50.284Z,30304.00
2018-03-18T12:03:22.307Z,26048.00
2018-03-18T12:04:54.229Z,33664.00
2018-03-18T12:06:25.750Z,52768.00
2018-03-18T12:07:57.571Z,55520.00
2018-03-18T12:09:29.388Z,35584.00
2018-03-18T12:11:01.422Z,31008.00
2018-03-18T12:12:33.031Z,65440.00
2018-03-18T12:14:04.852Z,36096.00
2018-03-18T12:15:36.673Z,33664.00
2018-03-18T12:18:40.317Z,28192.00
2018-03-18T12:21:43.959Z,33248.00
2018-03-18T12:23:16.311Z,34464.00
2018-03-18T12:24:52.410Z,37184.00
2018-03-18T12:26:19.422Z,34240.00
2018-03-18T12:27:51.245Z,37056.00
2018-03-18T12:29:23.067Z,35872.00
2018-03-18T12:30:55.195Z,33024.00
2018-03-18T12:32:26.709Z,31968.00
2018-03-18T12:33:58.734Z,34848.00
2018-03-18T12:35:30.353Z,45952.00
2018-03-18T12:38:33.996Z,28128.00
2018-03-18T12:40:06.346Z,30720.00
2018-03-18T12:41:37.641Z,73984.00
2018-03-18T12:43:09.507Z,68096.00
2018-03-18T12:44:41.391Z,57280.00
2018-03-18T12:46:13.120Z,65312.00
2018-03-18T12:50:49.077Z,94784.00
2018-03-18T12:52:20.399Z,97824.00
2018-03-18T12:53:52.227Z,86720.00
2018-03-18T12:55:24.047Z,95040.00
2018-03-18T12:56:56.524Z,84480.00
2018-03-18T12:58:27.694Z,47040.00
2018-03-18T12:59:59.519Z,85056.00
2018-03-18T13:01:31.343Z,92960.00
2018-03-18T13:03:03.267Z,28960.00
2018-03-18T13:04:35.035Z,86080.00
2018-03-18T13:06:06.817Z,86240.00
2018-03-18T13:07:38.641Z,83232.00
2018-03-18T13:09:10.818Z,82848.00
2018-03-18T13:12:14.119Z,86848.00
2018-03-18T13:13:45.942Z,70560.00
2018-03-18T13:15:17.867Z,85184.00
2018-03-18T13:18:21.419Z,40896.00
2018-03-18T13:19:53.245Z,87552.00
2018-03-18T13:21:25.171Z,82080.00
2018-03-18T13:22:56.897Z,85472.00
2018-03-18T13:24:28.722Z,87648.00
2018-03-18T13:26:00.550Z,50080.00
2018-03-18T13:27:32.474Z,78752.00
2018-03-18T13:30:36.025Z,37120.00
2018-03-18T13:32:08.383Z,26048.00
2018-03-18T13:33:39.678Z,39456.00
2018-03-18T13:35:11.502Z,60608.00
2018-03-18T13:36:43.327Z,53824.00
2018-03-18T13:38:15.151Z,86912.00
2018-03-18T13:39:47.180Z,79392.00
2018-03-18T13:41:18.803Z,84384.00
2018-03-18T13:42:50.628Z,83104.00
2018-03-18T13:44:22.454Z,97248.00
2018-03-18T13:45:54.480Z,28864.00
2018-03-18T13:48:57.932Z,28480.00
2018-03-18T13:50:29.759Z,35744.00
2018-03-18T13:52:01.745Z,147296.00
2018-03-18T13:53:33.411Z,78048.00
2018-03-18T13:55:05.237Z,28800.00
2018-03-18T13:56:37.063Z,37056.00
2018-03-18T13:58:08.890Z,45248.00
2018-03-18T13:59:40.715Z,33568.00
2018-03-18T14:01:12.540Z,64096.00
2018-03-18T14:02:44.369Z,70976.00
2018-03-18T14:05:48.321Z,62368.00
2018-03-18T14:07:20.375Z,72864.00
2018-03-18T14:08:51.676Z,68672.00
2018-03-18T14:10:23.501Z,75520.00
2018-03-18T14:11:55.329Z,78880.00
2018-03-18T14:13:27.158Z,56416.00
2018-03-18T14:14:58.985Z,56288.00
2018-03-18T14:16:30.816Z,77120.00
2018-03-18T14:18:02.746Z,37056.00
2018-03-18T14:21:06.301Z,45728.00
2018-03-18T14:22:38.331Z,50880.00
2018-03-18T14:24:10.266Z,35392.00
2018-03-18T14:25:41.799Z,36032.00
2018-03-18T14:27:13.618Z,39808.00
2018-03-18T14:28:45.444Z,79744.00
2018-03-18T14:30:17.273Z,55680.00
2018-03-18T14:31:49.101Z,84480.00
2018-03-18T14:33:20.931Z,80576.00
2018-03-18T14:34:52.760Z,83968.00
2018-03-18T14:36:24.591Z,50464.00
2018-03-18T14:37:56.627Z,50144.00
2018-03-18T14:39:28.552Z,92800.00
2018-03-18T14:41:00.281Z,90432.00
2018-03-18T14:42:32.012Z,95808.00
2018-03-18T14:44:03.739Z,56064.00
2018-03-18T14:45:35.577Z,32832.00
2018-03-18T14:47:07.400Z,30592.00
2018-03-18T14:48:39.235Z,33984.00
2018-03-18T14:50:11.061Z,100480.00
2018-03-18T14:51:42.889Z,100736.00
2018-03-18T14:53:14.719Z,83840.00
2018-03-18T14:54:46.597Z,99680.00
2018-03-18T14:56:18.375Z,70752.00
2018-03-18T14:59:22.036Z,109376.00
2018-03-18T15:00:53.968Z,108448.00
2018-03-18T15:02:25.698Z,107904.00
2018-03-18T15:03:58.058Z,107776.00
2018-03-18T15:05:29.360Z,109184.00
2018-03-18T15:07:01.198Z,111072.00
2018-03-18T15:10:04.858Z,102848.00
2018-03-18T15:11:36.992Z,35584.00
2018-03-18T15:13:09.047Z,61760.00
2018-03-18T15:14:40.349Z,111168.00
2018-03-18T15:17:44.010Z,28704.00
2018-03-18T15:19:16.091Z,57024.00
2018-03-18T15:20:47.669Z,108096.00
2018-03-18T15:22:19.498Z,111104.00
2018-03-18T15:23:51.331Z,110432.00
2018-03-18T15:25:23.161Z,33664.00
2018-03-18T15:26:54.989Z,43424.00
2018-03-18T15:28:26.821Z,50848.00
2018-03-18T15:29:58.649Z,50016.00
2018-03-18T15:31:30.687Z,111616.00
2018-03-18T15:33:02.309Z,119776.00
2018-03-18T15:34:34.346Z,115424.00
2018-03-18T15:36:05.966Z,118080.00
2018-03-18T15:37:38.200Z,121024.00
2018-03-18T15:39:09.627Z,115360.00
2018-03-18T15:40:41.457Z,55200.00
2018-03-18T15:42:13.288Z,117696.00
2018-03-18T15:43:45.118Z,123776.00
2018-03-18T15:45:16.950Z,100576.00
2018-03-18T15:46:48.825Z,37504.00
2018-03-18T15:48:21.141Z,40000.00
2018-03-18T15:49:52.747Z,89536.00
2018-03-18T15:51:24.804Z,115264.00
2018-03-18T15:52:56.309Z,110400.00
2018-03-18T15:54:28.467Z,32384.00
2018-03-18T15:56:00.173Z,36992.00
2018-03-18T15:57:31.598Z,37888.00
2018-03-18T15:59:03.428Z,111456.00
2018-03-18T16:00:35.258Z,129280.00
2018-03-18T16:02:07.088Z,35360.00
2018-03-18T16:03:38.919Z,31040.00
2018-03-18T16:05:10.953Z,30272.00
2018-03-18T16:08:14.407Z,25600.00
2018-03-18T16:11:18.063Z,29536.00
2018-03-18T16:12:50.194Z,113760.00
2018-03-18T16:14:21.819Z,129344.00
2018-03-18T16:15:53.547Z,82240.00
2018-03-18T16:17:25.375Z,29312.00
2018-03-18T16:18:57.202Z,25600.00
2018-03-18T16:20:29.130Z,26144.00
2018-03-18T16:22:00.947Z,30688.00
2018-03-18T16:25:04.714Z,127200.00
2018-03-18T16:26:36.339Z,112672.00
2018-03-18T16:29:39.996Z,123520.00
2018-03-18T16:31:11.825Z,111520.00
2018-03-18T16:32:43.753Z,31776.00
2018-03-18T16:34:15.482Z,60416.00
2018-03-18T16:35:47.623Z,113408.00
2018-03-18T16:37:19.139Z,117216.00
2018-03-18T16:40:23.005Z,118656.00
2018-03-18T16:41:54.628Z,117120.00
2018-03-18T16:43:26.665Z,116800.00
2018-03-18T16:44:58.290Z,116224.00
2018-03-18T16:46:30.323Z,117632.00
2018-03-18T16:48:01.952Z,116192.00
2018-03-18T16:49:33.785Z,116896.00
2018-03-18T16:51:05.617Z,117568.00
2018-03-18T16:52:37.548Z,48960.00
2018-03-18T16:54:09.280Z,114400.00
2018-03-18T16:55:41.114Z,115392.00
2018-03-18T16:57:12.948Z,115456.00
2018-03-18T17:00:16.613Z,31680.00
2018-03-18T17:01:48.652Z,111872.00
2018-03-18T17:03:20.815Z,48032.00
2018-03-18T17:04:52.314Z,108960.00
2018-03-18T17:06:23.943Z,102112.00
2018-03-18T17:07:55.775Z,111520.00
2018-03-18T17:09:27.606Z,104768.00
2018-03-18T17:10:59.439Z,112704.00
2018-03-18T17:15:35.035Z,98912.00
2018-03-18T17:17:06.766Z,114784.00
2018-03-18T17:18:38.597Z,115520.00
2018-03-18T17:20:10.632Z,114656.00
2018-03-18T17:21:42.262Z,39104.00
2018-03-18T17:23:14.297Z,111584.00
2018-03-18T17:24:46.454Z,112160.00
2018-03-18T17:26:17.757Z,105152.00
2018-03-18T17:27:49.593Z,104928.00
2018-03-18T17:29:21.423Z,101408.00
2018-03-18T17:30:53.256Z,99712.00
2018-03-18T17:32:25.088Z,108608.00
2018-03-18T17:33:57.018Z,112320.00
2018-03-18T17:35:28.751Z,111104.00
2018-03-18T17:37:00.637Z,110784.00
2018-03-18T17:40:04.778Z,109376.00
2018-03-18T17:41:36.081Z,107392.00
2018-03-18T17:43:08.218Z,104320.00
2018-03-18T17:49:15.355Z,98336.00
2018-03-18T17:50:47.276Z,98144.00
2018-03-18T17:52:18.906Z,97888.00
2018-03-18T17:53:51.041Z,97984.00
2018-03-18T17:55:23.099Z,95584.00
2018-03-18T17:56:54.606Z,96608.00
2018-03-18T17:58:26.233Z,67520.00
2018-03-18T17:59:58.267Z,22944.00
2018-03-18T18:01:30.429Z,95040.00
2018-03-18T18:03:01.728Z,76288.00
2018-03-18T18:04:33.557Z,23936.00
2018-03-18T18:06:05.387Z,24032.00
2018-03-18T18:07:37.467Z,22816.00
2018-03-18T18:09:09.058Z,22048.00
2018-03-18T18:10:40.874Z,19904.00
2018-03-18T18:12:12.702Z,86560.00
2018-03-18T18:15:16.366Z,89504.00
2018-03-18T18:18:20.014Z,87072.00
2018-03-18T18:21:23.667Z,81728.00
2018-03-18T18:22:55.498Z,78400.00
2018-03-18T18:24:27.324Z,77760.00
2018-03-18T18:25:59.151Z,71616.00
2018-03-18T18:27:31.385Z,69216.00
2018-03-18T18:29:02.808Z,50560.00
2018-03-18T18:30:34.637Z,31552.00
2018-03-18T18:32:06.668Z,66880.00
2018-03-18T18:33:38.292Z,63552.00
2018-03-18T18:35:10.322Z,63936.00
2018-03-18T18:36:41.955Z,63616.00
2018-03-18T18:38:13.775Z,61632.00
2018-03-18T18:41:17.430Z,59456.00
2018-03-18T18:42:49.257Z,56896.00
2018-03-18T18:44:21.083Z,56704.00
2018-03-18T18:45:53.111Z,56320.00
2018-03-18T18:47:24.887Z,55680.00
2018-03-18T18:48:56.563Z,53152.00
2018-03-18T18:50:28.392Z,51232.00
2018-03-18T18:52:00.757Z,50560.00
2018-03-18T18:53:32.142Z,50208.00
2018-03-18T18:55:03.868Z,50080.00
2018-03-18T18:56:35.694Z,49280.00
2018-03-18T18:58:07.521Z,48512.00
2018-03-18T19:01:11.270Z,45600.00
2018-03-18T19:02:42.998Z,44928.00
2018-03-18T19:04:15.352Z,43360.00
2018-03-18T19:05:46.651Z,42272.00
2018-03-18T19:07:18.781Z,41856.00
2018-03-18T19:08:50.301Z,40864.00
2018-03-18T19:10:22.328Z,41056.00
2018-03-18T19:11:53.951Z,39392.00
2018-03-18T19:13:25.776Z,37856.00
2018-03-18T19:14:57.602Z,38144.00
2018-03-18T19:16:29.427Z,37856.00
2018-03-18T19:21:05.105Z,33504.00
2018-03-18T19:22:36.727Z,32960.00
2018-03-18T19:24:08.758Z,32448.00
2018-03-18T19:25:40.378Z,31776.00
2018-03-18T19:27:12.303Z,30976.00
2018-03-18T19:28:44.027Z,29920.00
2018-03-18T19:30:16.158Z,28864.00
2018-03-18T19:31:47.679Z,28128.00
2018-03-18T19:33:19.652Z,27904.00
2018-03-18T19:34:51.326Z,27104.00
2018-03-18T19:36:23.150Z,26944.00
2018-03-18T19:37:54.976Z,26336.00
2018-03-18T19:39:26.800Z,25664.00
2018-03-18T19:42:30.980Z,24000.00
2018-03-18T19:44:02.273Z,23200.00
2018-03-18T19:45:34.199Z,22912.00
2018-03-18T19:47:06.225Z,22400.00
2018-03-18T19:48:37.747Z,21408.00
2018-03-18T19:50:09.571Z,20960.00
2018-03-18T19:51:41.395Z,20416.00
2018-03-18T19:53:13.217Z,19904.00
2018-03-18T19:54:45.043Z,19552.00
2018-03-18T19:56:16.867Z,21056.00